createdAt,value
2023-03-22T00:00:08.073Z,99.99
2023-03-22T00:01:08.066Z,99.99
2023-03-22T00:02:08.051Z,99.99
2023-03-22T00:03:08.049Z,99.99
2023-03-22T00:04:08.150Z,99.99
2023-03-22T00:05:08.012Z,99.99
2023-03-22T00:06:08.010Z,99.99
2023-03-22T00:07:07.989Z,99.99
2023-03-22T00:08:07.980Z,99.99
2023-03-22T00:09:07.966Z,99.99
2023-03-22T00:10:07.965Z,99.99
2023-03-22T00:11:07.942Z,99.99
2023-03-22T00:12:07.935Z,99.99
2023-03-22T00:13:07.924Z,99.99
2023-03-22T00:14:07.915Z,99.99
2023-03-22T00:15:07.928Z,99.99
2023-03-22T00:16:07.938Z,99.99
2023-03-22T00:17:07.870Z,99.99
2023-03-22T00:18:07.860Z,99.99
2023-03-22T00:19:07.846Z,99.99
2023-03-22T00:20:07.837Z,99.99
2023-03-22T00:21:07.824Z,99.99
2023-03-22T00:22:07.812Z,99.99
2023-03-22T00:23:07.796Z,99.99
2023-03-22T00:24:07.789Z,99.99
2023-03-22T00:25:07.776Z,99.99
2023-03-22T00:26:07.765Z,99.99
2023-03-22T00:27:07.749Z,99.99
2023-03-22T00:28:07.741Z,99.99
2023-03-22T00:29:07.721Z,99.99
2023-03-22T00:30:07.717Z,99.99
2023-03-22T00:31:07.771Z,99.99
2023-03-22T00:32:07.693Z,99.99
2023-03-22T00:33:07.678Z,99.99
2023-03-22T00:34:07.678Z,99.99
2023-03-22T00:35:07.661Z,99.99
2023-03-22T00:36:07.651Z,99.99
2023-03-22T00:37:07.631Z,99.99
2023-03-22T00:38:07.622Z,99.99
2023-03-22T00:39:07.609Z,99.99
2023-03-22T00:40:07.599Z,99.99
2023-03-22T00:41:07.595Z,99.99
2023-03-22T00:42:07.618Z,99.99
2023-03-22T00:43:07.560Z,99.99
2023-03-22T00:44:07.553Z,99.99
2023-03-22T00:45:07.536Z,99.99
2023-03-22T00:46:07.568Z,99.99
2023-03-22T00:47:07.538Z,99.99
2023-03-22T00:48:07.542Z,99.99
2023-03-22T00:49:07.486Z,99.99
2023-03-22T00:50:07.483Z,99.99
2023-03-22T00:51:07.479Z,99.99
2023-03-22T00:52:07.453Z,99.99
2023-03-22T00:53:07.439Z,99.99
2023-03-22T00:54:07.433Z,99.99
2023-03-22T00:55:07.417Z,99.99
2023-03-22T00:56:07.404Z,99.99
2023-03-22T00:57:07.393Z,99.99
2023-03-22T00:58:07.385Z,99.99
2023-03-22T00:59:07.402Z,99.99
2023-03-22T01:00:07.357Z,99.99
2023-03-22T01:01:07.481Z,99.99
2023-03-22T01:02:07.339Z,99.99
2023-03-22T01:03:07.444Z,99.99
2023-03-22T01:04:07.310Z,99.99
2023-03-22T01:05:07.289Z,99.99
2023-03-22T01:06:07.280Z,99.99
2023-03-22T01:07:07.268Z,99.99
2023-03-22T01:08:07.255Z,99.99
2023-03-22T01:09:07.239Z,99.99
2023-03-22T01:10:07.231Z,99.99
2023-03-22T01:11:07.228Z,99.99
2023-03-22T01:12:07.208Z,99.99
2023-03-22T01:13:07.188Z,99.99
2023-03-22T01:14:07.180Z,99.99
2023-03-22T01:15:07.166Z,99.99
2023-03-22T01:16:07.220Z,99.99
2023-03-22T01:17:07.140Z,99.99
2023-03-22T01:18:07.128Z,99.99
2023-03-22T01:19:07.140Z,99.99
2023-03-22T01:20:07.105Z,99.99
2023-03-22T01:21:07.088Z,99.99
2023-03-22T01:22:07.077Z,99.99
2023-03-22T01:23:07.070Z,99.99
2023-03-22T01:24:07.054Z,99.99
2023-03-22T01:25:07.041Z,99.99
2023-03-22T01:26:07.035Z,99.99
2023-03-22T01:27:07.017Z,99.99
2023-03-22T01:28:07.009Z,99.99
2023-03-22T01:29:06.988Z,99.99
2023-03-22T01:30:06.977Z,99.99
2023-03-22T01:31:07.029Z,99.99
2023-03-22T01:32:06.956Z,99.99
2023-03-22T01:33:06.936Z,99.99
2023-03-22T01:34:06.928Z,99.99
2023-03-22T01:35:06.952Z,99.99
2023-03-22T01:36:06.904Z,99.99
2023-03-22T01:37:06.892Z,99.99
2023-03-22T01:38:06.882Z,99.99
2023-03-22T01:39:06.863Z,99.99
2023-03-22T01:40:06.858Z,99.99
2023-03-22T01:41:06.841Z,99.99
2023-03-22T01:42:06.830Z,99.99
2023-03-22T01:43:06.815Z,99.99
2023-03-22T01:44:06.811Z,99.99
2023-03-22T01:45:06.788Z,99.99
2023-03-22T01:46:06.809Z,99.99
2023-03-22T01:47:06.763Z,99.99
2023-03-22T01:48:06.796Z,99.99
2023-03-22T01:49:06.786Z,99.99
2023-03-22T01:50:06.728Z,99.99
2023-03-22T01:51:06.735Z,99.99
2023-03-22T01:52:06.702Z,99.99
2023-03-22T01:53:06.691Z,99.99
2023-03-22T01:54:06.685Z,99.99
2023-03-22T01:55:06.676Z,99.99
2023-03-22T01:56:06.656Z,99.99
2023-03-22T01:57:06.638Z,99.99
2023-03-22T01:58:06.634Z,99.99
2023-03-22T01:59:06.611Z,99.99
2023-03-22T02:00:06.600Z,99.99
2023-03-22T02:01:06.681Z,99.99
2023-03-22T02:02:06.576Z,99.99
2023-03-22T02:03:06.628Z,99.99
2023-03-22T02:04:06.548Z,99.99
2023-03-22T02:05:06.540Z,99.99
2023-03-22T02:06:06.523Z,99.99
2023-03-22T02:07:06.530Z,99.99
2023-03-22T02:08:06.504Z,99.99
2023-03-22T02:09:06.489Z,99.99
2023-03-22T02:10:06.471Z,99.99
2023-03-22T02:11:06.461Z,99.99
2023-03-22T02:12:06.449Z,99.99
2023-03-22T02:13:06.432Z,99.99
2023-03-22T02:14:06.422Z,99.99
2023-03-22T02:15:06.408Z,99.99
2023-03-22T02:16:06.480Z,99.99
2023-03-22T02:17:06.387Z,99.99
2023-03-22T02:18:06.379Z,99.99
2023-03-22T02:19:06.354Z,99.99
2023-03-22T02:20:06.360Z,99.99
2023-03-22T02:21:06.322Z,99.99
2023-03-22T02:22:06.314Z,99.99
2023-03-22T02:23:06.336Z,99.99
2023-03-22T02:24:06.287Z,99.99
2023-03-22T02:25:06.272Z,99.99
2023-03-22T02:26:06.260Z,99.99
2023-03-22T02:27:06.245Z,99.99
2023-03-22T02:28:06.238Z,99.99
2023-03-22T02:29:06.218Z,99.99
2023-03-22T02:30:06.210Z,99.99
2023-03-22T02:31:06.217Z,99.99
2023-03-22T02:32:06.188Z,99.99
2023-03-22T02:33:06.165Z,99.99
2023-03-22T02:34:06.155Z,99.99
2023-03-22T02:35:06.180Z,99.99
2023-03-22T02:36:06.130Z,99.99
2023-03-22T02:37:06.112Z,99.99
2023-03-22T02:38:06.110Z,99.99
2023-03-22T02:39:06.108Z,99.99
2023-03-22T02:40:06.077Z,99.99
2023-03-22T02:41:06.061Z,99.99
2023-03-22T02:42:06.052Z,99.99
2023-03-22T02:43:06.038Z,99.99
2023-03-22T02:44:06.037Z,99.99
2023-03-22T02:45:06.009Z,99.99
2023-03-22T02:46:06.010Z,99.99
2023-03-22T02:47:05.979Z,99.99
2023-03-22T02:48:06.026Z,99.99
2023-03-22T02:49:05.955Z,99.99
2023-03-22T02:50:05.944Z,99.99
2023-03-22T02:51:05.927Z,99.99
2023-03-22T02:52:05.920Z,99.99
2023-03-22T02:53:05.905Z,99.99
2023-03-22T02:54:05.894Z,99.99
2023-03-22T02:55:05.895Z,99.99
2023-03-22T02:56:05.864Z,99.99
2023-03-22T02:57:05.849Z,99.99
2023-03-22T02:58:05.839Z,99.99
2023-03-22T02:59:05.838Z,99.99
2023-03-22T03:00:05.813Z,99.99
2023-03-22T03:01:05.957Z,99.99
2023-03-22T03:02:05.836Z,99.99
2023-03-22T03:03:05.776Z,99.99
2023-03-22T03:04:05.771Z,99.99
2023-03-22T03:05:05.739Z,99.99
2023-03-22T03:06:05.730Z,99.99
2023-03-22T03:07:05.713Z,99.99
2023-03-22T03:08:05.702Z,99.99
2023-03-22T03:09:05.685Z,99.99
2023-03-22T03:10:05.681Z,99.99
2023-03-22T03:11:05.701Z,99.99
2023-03-22T03:12:05.649Z,99.99
2023-03-22T03:13:05.645Z,99.99
2023-03-22T03:14:05.621Z,99.99
2023-03-22T03:15:05.604Z,99.99
2023-03-22T03:16:05.635Z,99.99
2023-03-22T03:17:05.577Z,99.99
2023-03-22T03:18:05.568Z,99.99
2023-03-22T03:19:05.550Z,99.99
2023-03-22T03:20:05.550Z,99.99
2023-03-22T03:21:05.523Z,99.99
2023-03-22T03:22:05.515Z,99.99
2023-03-22T03:23:05.505Z,99.99
2023-03-22T03:24:05.488Z,99.99
2023-03-22T03:25:05.469Z,99.99
2023-03-22T03:26:05.458Z,99.99
2023-03-22T03:27:05.470Z,99.99
2023-03-22T03:28:05.432Z,99.99
2023-03-22T03:29:05.415Z,99.99
2023-03-22T03:30:05.422Z,99.99
2023-03-22T03:31:05.398Z,99.99
2023-03-22T03:32:05.378Z,99.99
2023-03-22T03:33:05.366Z,99.99
2023-03-22T03:34:05.350Z,99.99
2023-03-22T03:35:05.348Z,99.99
2023-03-22T03:36:05.322Z,99.99
2023-03-22T03:37:05.308Z,99.99
2023-03-22T03:38:05.297Z,99.99
2023-03-22T03:39:05.279Z,99.99
2023-03-22T03:40:05.293Z,99.99
2023-03-22T03:41:05.251Z,99.99
2023-03-22T03:42:05.243Z,99.99
2023-03-22T03:43:05.257Z,99.99
2023-03-22T03:44:05.215Z,99.99
2023-03-22T03:45:05.204Z,99.99
2023-03-22T03:46:05.245Z,99.99
2023-03-22T03:47:05.175Z,99.99
2023-03-22T03:48:05.274Z,99.99
2023-03-22T03:49:05.152Z,99.99
2023-03-22T03:50:05.130Z,99.99
2023-03-22T03:51:05.121Z,99.99
2023-03-22T03:52:05.109Z,99.99
2023-03-22T03:53:05.088Z,99.99
2023-03-22T03:54:05.082Z,99.99
2023-03-22T03:55:05.082Z,99.99
2023-03-22T03:56:05.050Z,99.99
2023-03-22T03:57:05.036Z,99.99
2023-03-22T03:58:05.018Z,99.99
2023-03-22T03:59:05.029Z,99.99
2023-03-22T04:00:05.006Z,99.99
2023-03-22T04:01:04.981Z,99.99
2023-03-22T04:02:04.973Z,99.99
2023-03-22T04:03:04.954Z,99.99
2023-03-22T04:04:04.949Z,99.99
2023-03-22T04:05:04.924Z,99.99
2023-03-22T04:06:04.917Z,99.99
2023-03-22T04:07:04.906Z,99.99
2023-03-22T04:08:04.881Z,99.99
2023-03-22T04:09:04.871Z,99.99
2023-03-22T04:10:04.852Z,99.99
2023-03-22T04:11:04.841Z,99.99
2023-03-22T04:12:04.828Z,99.99
2023-03-22T04:13:04.814Z,99.99
2023-03-22T04:14:04.803Z,99.99
2023-03-22T04:15:04.821Z,99.99
2023-03-22T04:16:04.771Z,99.99
2023-03-22T04:17:04.771Z,99.99
2023-03-22T04:18:04.744Z,99.99
2023-03-22T04:19:04.732Z,99.99
2023-03-22T04:20:05.890Z,99.99
2023-03-22T04:21:04.702Z,99.99
2023-03-22T04:22:04.688Z,99.99
2023-03-22T04:23:04.679Z,99.99
2023-03-22T04:24:04.671Z,99.99
2023-03-22T04:25:04.647Z,99.99
2023-03-22T04:26:04.631Z,99.99
2023-03-22T04:27:04.619Z,99.99
2023-03-22T04:28:04.601Z,99.99
2023-03-22T04:29:04.589Z,99.99
2023-03-22T04:30:04.572Z,99.99
2023-03-22T04:31:04.692Z,99.99
2023-03-22T04:32:04.549Z,99.99
2023-03-22T04:33:04.535Z,99.99
2023-03-22T04:34:04.520Z,99.99
2023-03-22T04:35:04.503Z,99.99
2023-03-22T04:36:04.693Z,99.99
2023-03-22T04:37:04.490Z,99.99
2023-03-22T04:38:04.460Z,99.99
2023-03-22T04:39:04.448Z,99.99
2023-03-22T04:40:04.430Z,99.99
2023-03-22T04:41:04.417Z,99.99
2023-03-22T04:42:04.404Z,99.99
2023-03-22T04:43:04.396Z,99.99
2023-03-22T04:44:04.384Z,99.99
2023-03-22T04:45:04.362Z,99.99
2023-03-22T04:46:04.433Z,99.99
2023-03-22T04:47:04.357Z,99.99
2023-03-22T04:48:04.353Z,99.99
2023-03-22T04:49:04.306Z,99.99
2023-03-22T04:50:04.288Z,99.99
2023-03-22T04:51:04.380Z,99.99
2023-03-22T04:52:04.263Z,99.99
2023-03-22T04:53:04.261Z,99.99
2023-03-22T04:54:04.233Z,99.99
2023-03-22T04:55:04.220Z,99.99
2023-03-22T04:56:04.224Z,99.99
2023-03-22T04:58:04.211Z,99.99
2023-03-22T04:59:04.161Z,99.99
2023-03-22T05:00:04.152Z,99.99
2023-03-22T05:01:04.133Z,99.99
2023-03-22T05:02:04.121Z,99.99
2023-03-22T05:03:04.207Z,99.99
2023-03-22T05:04:04.099Z,99.99
2023-03-22T05:05:04.078Z,99.99
2023-03-22T05:06:04.064Z,99.99
2023-03-22T05:07:04.052Z,99.99
2023-03-22T05:08:04.038Z,99.99
2023-03-22T05:09:04.019Z,99.99
2023-03-22T05:10:04.010Z,99.99
2023-03-22T05:11:03.992Z,99.99
2023-03-22T05:12:03.978Z,99.99
2023-03-22T05:13:03.960Z,99.99
2023-03-22T05:14:04.113Z,99.99
2023-03-22T05:15:03.934Z,99.99
2023-03-22T05:16:03.968Z,99.99
2023-03-22T05:17:03.907Z,99.99
2023-03-22T05:18:03.897Z,99.99
2023-03-22T05:19:03.905Z,99.99
2023-03-22T05:20:03.866Z,99.99
2023-03-22T05:21:03.857Z,99.99
2023-03-22T05:22:03.835Z,99.99
2023-03-22T05:23:03.817Z,99.99
2023-03-22T05:24:03.809Z,99.99
2023-03-22T05:25:03.789Z,99.99
2023-03-22T05:26:03.776Z,99.99
2023-03-22T05:27:03.868Z,99.99
2023-03-22T05:28:03.756Z,99.99
2023-03-22T05:29:03.730Z,99.99
2023-03-22T05:30:03.721Z,99.99
2023-03-22T05:31:03.795Z,99.99
2023-03-22T05:32:03.694Z,99.99
2023-03-22T05:33:03.673Z,99.99
2023-03-22T05:34:03.662Z,99.99
2023-03-22T05:35:03.672Z,99.99
2023-03-22T05:36:03.639Z,99.99
2023-03-22T05:37:03.617Z,99.99
2023-03-22T05:38:03.610Z,99.99
2023-03-22T05:39:03.590Z,99.99
2023-03-22T05:40:03.581Z,99.99
2023-03-22T05:41:03.560Z,99.99
2023-03-22T05:42:03.555Z,99.99
2023-03-22T05:43:03.536Z,99.99
2023-03-22T05:44:03.524Z,99.99
2023-03-22T05:45:03.510Z,99.99
2023-03-22T05:46:03.495Z,99.99
2023-03-22T05:47:03.521Z,99.99
2023-03-22T05:48:03.534Z,99.99
2023-03-22T05:49:03.584Z,99.99
2023-03-22T05:50:03.442Z,99.99
2023-03-22T05:51:03.465Z,99.99
2023-03-22T05:52:03.409Z,99.99
2023-03-22T05:53:03.410Z,99.99
2023-03-22T05:54:03.379Z,99.99
2023-03-22T05:55:03.363Z,99.99
2023-03-22T05:56:03.351Z,99.99
2023-03-22T05:57:03.333Z,99.99
2023-03-22T05:58:03.324Z,99.99
2023-03-22T05:59:03.309Z,99.99
2023-03-22T06:00:03.301Z,99.99
2023-03-22T06:01:03.285Z,99.99
2023-03-22T06:02:03.309Z,99.99
2023-03-22T06:03:03.424Z,99.99
2023-03-22T06:04:03.240Z,99.99
2023-03-22T06:05:03.243Z,99.99
2023-03-22T06:06:03.220Z,99.99
2023-03-22T06:07:03.253Z,99.99
2023-03-22T06:08:03.182Z,99.99
2023-03-22T06:09:15.911Z,99.99
2023-03-22T06:10:03.154Z,99.99
2023-03-22T06:11:03.135Z,99.99
2023-03-22T06:12:03.125Z,99.99
2023-03-22T06:13:03.170Z,99.99
2023-03-22T06:14:03.095Z,99.99
2023-03-22T06:15:03.077Z,99.99
2023-03-22T06:16:03.152Z,99.99
2023-03-22T06:17:03.054Z,99.99
2023-03-22T06:18:03.044Z,99.99
2023-03-22T06:19:03.036Z,99.99
2023-03-22T06:20:03.012Z,99.99
2023-03-22T06:21:02.998Z,99.99
2023-03-22T06:22:02.980Z,99.99
2023-03-22T06:23:03.072Z,99.99
2023-03-22T06:24:02.953Z,99.99
2023-03-22T06:25:02.937Z,99.99
2023-03-22T06:26:02.926Z,99.99
2023-03-22T06:27:02.908Z,99.99
2023-03-22T06:28:02.898Z,99.99
2023-03-22T06:29:02.876Z,99.99
2023-03-22T06:30:02.865Z,99.99
2023-03-22T06:31:02.904Z,99.99
2023-03-22T06:32:02.836Z,99.99
2023-03-22T06:33:02.815Z,99.99
2023-03-22T06:34:02.807Z,99.99
2023-03-22T06:35:02.786Z,99.99
2023-03-22T06:36:02.779Z,99.99
2023-03-22T06:37:02.757Z,99.99
2023-03-22T06:38:02.750Z,99.99
2023-03-22T06:39:02.763Z,99.99
2023-03-22T06:40:02.720Z,99.99
2023-03-22T06:41:02.700Z,99.99
2023-03-22T06:42:02.693Z,99.99
2023-03-22T06:43:05.644Z,99.99
2023-03-22T06:44:02.664Z,99.99
2023-03-22T06:45:02.643Z,99.99
2023-03-22T06:46:02.671Z,99.99
2023-03-22T06:47:02.615Z,99.99
2023-03-22T06:48:02.642Z,99.99
2023-03-22T06:49:02.597Z,99.99
2023-03-22T06:50:02.575Z,99.99
2023-03-22T06:51:02.558Z,99.99
2023-03-22T06:52:02.551Z,99.99
2023-03-22T06:53:02.533Z,99.99
2023-03-22T06:54:02.521Z,99.99
2023-03-22T06:55:02.528Z,99.99
2023-03-22T06:56:02.494Z,99.99
2023-03-22T06:57:02.480Z,99.99
2023-03-22T06:58:02.465Z,99.99
2023-03-22T06:59:02.450Z,99.99
2023-03-22T07:00:02.440Z,99.99
2023-03-22T07:01:02.450Z,99.99
2023-03-22T07:02:02.412Z,99.99
2023-03-22T07:03:02.396Z,99.99
2023-03-22T07:04:02.428Z,99.99
2023-03-22T07:05:02.380Z,99.99
2023-03-22T07:06:02.388Z,99.99
2023-03-22T07:07:02.357Z,99.52
2023-03-22T07:08:02.338Z,99.90
2023-03-22T07:09:02.339Z,99.99
2023-03-22T07:10:02.321Z,99.52
2023-03-22T07:11:02.321Z,99.52
2023-03-22T07:12:02.286Z,99.42
2023-03-22T07:13:02.269Z,99.71
2023-03-22T07:14:02.261Z,99.99
2023-03-22T07:15:02.244Z,99.99
2023-03-22T07:16:02.316Z,99.71
2023-03-22T07:17:02.218Z,99.71
2023-03-22T07:18:02.236Z,99.52
2023-03-22T07:19:02.195Z,99.13
2023-03-22T07:20:02.185Z,99.66
2023-03-22T07:21:02.172Z,99.37
2023-03-22T07:22:02.160Z,99.18
2023-03-22T07:23:02.151Z,98.32
2023-03-22T07:24:02.143Z,98.32
2023-03-22T07:25:02.125Z,99.18
2023-03-22T07:26:02.117Z,99.14
2023-03-22T07:27:02.134Z,98.75
2023-03-22T07:28:02.087Z,98.08
2023-03-22T07:29:02.087Z,97.71
2023-03-22T07:30:02.079Z,97.32
2023-03-22T07:31:02.048Z,97.23
2023-03-22T07:32:02.183Z,97.66
2023-03-22T07:33:02.024Z,97.75
2023-03-22T07:34:02.018Z,96.70
2023-03-22T07:35:02.175Z,96.32
2023-03-22T07:36:02.037Z,95.46
2023-03-22T07:37:01.978Z,94.98
2023-03-22T07:38:01.970Z,94.51
2023-03-22T07:39:01.957Z,94.46
2023-03-22T07:40:01.950Z,94.07
2023-03-22T07:41:01.941Z,93.79
2023-03-22T07:42:01.924Z,93.50
2023-03-22T07:43:01.932Z,92.74
2023-03-22T07:44:16.663Z,93.12
2023-03-22T07:45:01.940Z,92.93
2023-03-22T07:46:01.880Z,93.12
2023-03-22T07:47:01.875Z,92.93
2023-03-22T07:48:01.971Z,92.83
2023-03-22T07:49:01.845Z,92.93
2023-03-22T07:50:01.839Z,93.79
2023-03-22T07:51:01.821Z,92.64
2023-03-22T07:52:01.827Z,92.93
2023-03-22T07:53:01.815Z,93.50
2023-03-22T07:54:01.798Z,93.60
2023-03-22T07:55:01.783Z,92.93
2023-03-22T07:56:01.773Z,92.88
2023-03-22T07:57:01.812Z,91.92
2023-03-22T07:58:01.750Z,92.30
2023-03-22T07:59:01.836Z,92.11
2023-03-22T08:00:01.742Z,91.44
2023-03-22T08:01:01.731Z,91.44
2023-03-22T08:02:01.768Z,91.25
2023-03-22T08:03:01.806Z,90.82
2023-03-22T08:04:01.685Z,91.01
2023-03-22T08:05:01.685Z,91.30
2023-03-22T08:06:01.764Z,89.86
2023-03-22T08:07:01.654Z,89.95
2023-03-22T08:08:01.640Z,89.86
2023-03-22T08:09:01.643Z,90.05
2023-03-22T08:10:01.620Z,88.81
2023-03-22T08:11:01.622Z,88.90
2023-03-22T08:12:01.597Z,89.43
2023-03-22T08:13:01.590Z,88.52
2023-03-22T08:14:01.578Z,88.95
2023-03-22T08:15:01.603Z,88.37
2023-03-22T08:16:01.580Z,87.90
2023-03-22T08:17:01.546Z,88.56
2023-03-22T08:18:01.533Z,88.66
2023-03-22T08:19:01.531Z,87.99
2023-03-22T08:20:01.514Z,87.32
2023-03-22T08:21:01.503Z,87.03
2023-03-22T08:22:01.490Z,87.61
2023-03-22T08:23:01.501Z,87.08
2023-03-22T08:24:01.473Z,86.74
2023-03-22T08:25:01.463Z,86.41
2023-03-22T08:26:01.465Z,86.50
2023-03-22T08:27:01.448Z,86.46
2023-03-22T08:28:01.432Z,87.27
2023-03-22T08:29:01.427Z,87.08
2023-03-22T08:30:01.408Z,86.60
2023-03-22T08:31:01.425Z,86.02
2023-03-22T08:32:01.592Z,86.12
2023-03-22T08:33:01.384Z,86.79
2023-03-22T08:34:01.378Z,86.41
2023-03-22T08:35:01.366Z,86.12
2023-03-22T08:36:01.455Z,85.93
2023-03-22T08:37:01.345Z,85.74
2023-03-22T08:38:01.329Z,85.49
2023-03-22T08:39:01.332Z,85.21
2023-03-22T08:40:01.371Z,85.39
2023-03-22T08:41:01.305Z,85.11
2023-03-22T08:42:01.308Z,85.30
2023-03-22T08:43:01.287Z,84.82
2023-03-22T08:44:01.279Z,84.91
2023-03-22T08:45:01.270Z,84.91
2023-03-22T08:46:01.301Z,85.11
2023-03-22T08:47:02.819Z,85.01
2023-03-22T08:48:01.282Z,83.95
2023-03-22T08:49:01.232Z,84.53
2023-03-22T08:50:01.230Z,84.34
2023-03-22T08:51:01.205Z,84.05
2023-03-22T08:52:01.207Z,83.95
2023-03-22T08:53:01.191Z,84.05
2023-03-22T08:54:01.184Z,84.72
2023-03-22T08:55:01.171Z,84.05
2023-03-22T08:56:01.166Z,83.38
2023-03-22T08:57:01.152Z,84.44
2023-03-22T08:58:01.136Z,83.38
2023-03-22T08:59:01.133Z,83.76
2023-03-22T09:00:01.124Z,84.05
2023-03-22T09:01:01.247Z,83.09
2023-03-22T09:02:01.214Z,82.71
2023-03-22T09:03:01.115Z,83.29
2023-03-22T09:04:01.169Z,82.14
2023-03-22T09:05:01.076Z,81.46
2023-03-22T09:06:01.065Z,81.95
2023-03-22T09:07:01.058Z,81.89
2023-03-22T09:08:06.251Z,81.85
2023-03-22T09:09:01.041Z,81.31
2023-03-22T09:10:01.025Z,81.60
2023-03-22T09:11:01.029Z,79.74
2023-03-22T09:12:01.017Z,80.22
2023-03-22T09:13:01.001Z,81.62
2023-03-22T09:14:00.989Z,81.27
2023-03-22T09:15:00.986Z,81.27
2023-03-22T09:16:01.048Z,81.75
2023-03-22T09:17:00.965Z,81.66
2023-03-22T09:18:00.952Z,81.27
2023-03-22T09:19:00.965Z,81.51
2023-03-22T09:20:12.034Z,80.93
2023-03-22T09:21:00.932Z,79.88
2023-03-22T09:22:00.926Z,78.34
2023-03-22T09:23:00.912Z,79.68
2023-03-22T09:24:00.914Z,78.25
2023-03-22T09:25:00.889Z,78.44
2023-03-22T09:26:00.879Z,79.68
2023-03-22T09:27:00.872Z,78.28
2023-03-22T09:28:00.865Z,78.77
2023-03-22T09:29:00.852Z,77.80
2023-03-22T09:30:00.869Z,78.19
2023-03-22T09:31:01.056Z,78.57
2023-03-22T09:32:00.837Z,77.51
2023-03-22T09:33:00.817Z,77.33
2023-03-22T09:34:00.828Z,75.79
2023-03-22T09:35:00.824Z,75.70
2023-03-22T09:36:00.826Z,76.94
2023-03-22T09:37:00.782Z,76.59
2023-03-22T09:38:00.783Z,74.73
2023-03-22T09:39:00.765Z,75.31
2023-03-22T09:40:00.752Z,76.31
2023-03-22T09:41:00.759Z,76.59
2023-03-22T09:42:00.740Z,76.59
2023-03-22T09:43:00.736Z,76.59
2023-03-22T09:44:00.719Z,75.25
2023-03-22T09:45:00.715Z,74.96
2023-03-22T09:46:00.741Z,74.90
2023-03-22T09:47:00.700Z,75.38
2023-03-22T09:48:00.726Z,74.81
2023-03-22T09:49:00.681Z,74.04
2023-03-22T09:50:00.674Z,73.75
2023-03-22T09:51:00.685Z,72.50
2023-03-22T09:52:00.697Z,72.22
2023-03-22T09:53:00.649Z,73.41
2023-03-22T09:54:00.642Z,73.85
2023-03-22T09:55:00.633Z,72.02
2023-03-22T09:56:00.623Z,72.44
2023-03-22T09:57:00.636Z,72.89
2023-03-22T09:58:00.606Z,72.54
2023-03-22T09:59:00.599Z,71.48
2023-03-22T10:00:00.586Z,71.29
2023-03-22T10:01:00.605Z,71.00
2023-03-22T10:02:00.951Z,71.10
2023-03-22T10:03:00.566Z,71.48
2023-03-22T10:04:00.606Z,71.29
2023-03-22T10:05:00.551Z,71.10
2023-03-22T10:06:00.538Z,70.62
2023-03-22T10:07:00.625Z,70.43
2023-03-22T10:08:00.525Z,70.04
2023-03-22T10:09:00.518Z,69.27
2023-03-22T10:10:00.508Z,70.43
2023-03-22T10:11:00.502Z,70.14
2023-03-22T10:12:00.495Z,69.75
2023-03-22T10:13:00.489Z,70.04
2023-03-22T10:14:00.476Z,69.53
2023-03-22T10:15:00.473Z,68.76
2023-03-22T10:16:00.481Z,71.25
2023-03-22T10:17:00.460Z,72.12
2023-03-22T10:18:00.446Z,71.55
2023-03-22T10:19:00.441Z,72.02
2023-03-22T10:20:00.427Z,71.67
2023-03-22T10:21:00.425Z,69.95
2023-03-22T10:22:00.413Z,70.81
2023-03-22T10:23:00.438Z,69.66
2023-03-22T10:24:00.399Z,70.04
2023-03-22T10:25:00.396Z,70.72
2023-03-22T10:26:00.382Z,69.08
2023-03-22T10:27:00.378Z,68.98
2023-03-22T10:28:00.368Z,69.95
2023-03-22T10:29:02.688Z,67.93
2023-03-22T10:30:00.350Z,68.12
2023-03-22T10:31:00.417Z,66.87
2023-03-22T10:32:00.338Z,67.00
2023-03-22T10:33:00.332Z,66.87
2023-03-22T10:34:00.321Z,68.35
2023-03-22T10:35:00.317Z,69.21
2023-03-22T10:36:00.341Z,67.86
2023-03-22T10:37:00.301Z,65.94
2023-03-22T10:38:00.292Z,67.10
2023-03-22T10:39:00.307Z,66.52
2023-03-22T10:40:00.278Z,68.19
2023-03-22T10:41:00.276Z,67.90
2023-03-22T10:42:00.257Z,65.88
2023-03-22T10:43:00.262Z,65.30
2023-03-22T10:44:00.252Z,65.59
2023-03-22T10:45:00.251Z,65.11
2023-03-22T10:46:00.234Z,64.73
2023-03-22T10:47:00.383Z,65.01
2023-03-22T10:48:00.359Z,65.11
2023-03-22T10:49:00.238Z,66.20
2023-03-22T10:50:00.204Z,65.78
2023-03-22T10:51:00.219Z,64.76
2023-03-22T10:52:00.202Z,63.76
2023-03-22T10:53:00.189Z,64.34
2023-03-22T10:54:00.182Z,65.33
2023-03-22T10:55:03.773Z,64.92
2023-03-22T10:56:00.164Z,64.63
2023-03-22T10:57:00.161Z,63.99
2023-03-22T10:58:00.150Z,64.95
2023-03-22T10:59:00.148Z,64.28
2023-03-22T11:00:00.173Z,63.79
2023-03-22T11:01:00.321Z,63.41
2023-03-22T11:02:00.369Z,64.66
2023-03-22T11:03:00.216Z,63.99
2023-03-22T11:04:00.109Z,63.64
2023-03-22T11:05:00.116Z,62.26
2023-03-22T11:06:00.117Z,61.49
2023-03-22T11:07:00.100Z,62.83
2023-03-22T11:08:00.137Z,62.35
2023-03-22T11:09:00.111Z,62.54
2023-03-22T11:10:00.100Z,62.16
2023-03-22T11:11:00.168Z,61.58
2023-03-22T11:12:00.129Z,61.32
2023-03-22T11:13:00.061Z,61.10
2023-03-22T11:14:00.075Z,60.42
2023-03-22T11:15:00.067Z,62.77
2023-03-22T11:16:00.180Z,62.19
2023-03-22T11:17:00.038Z,61.13
2023-03-22T11:18:00.033Z,61.32
2023-03-22T11:19:00.017Z,62.64
2023-03-22T11:20:00.051Z,62.77
2023-03-22T11:21:00.003Z,62.09
2023-03-22T11:22:00.015Z,61.90
2023-03-22T11:22:59.988Z,64.21
2023-03-22T11:23:59.981Z,63.44
2023-03-22T11:24:59.975Z,62.57
2023-03-22T11:25:59.966Z,62.70
2023-03-22T11:26:59.985Z,62.99
2023-03-22T11:27:59.955Z,62.99
2023-03-22T11:28:59.950Z,62.67
2023-03-22T11:29:59.951Z,63.82
2023-03-22T11:30:59.946Z,65.08
2023-03-22T11:32:00.142Z,63.28
2023-03-22T11:33:00.010Z,61.74
2023-03-22T11:33:59.928Z,60.68
2023-03-22T11:34:59.913Z,59.81
2023-03-22T11:35:59.981Z,59.81
2023-03-22T11:36:59.907Z,60.00
2023-03-22T11:37:59.891Z,59.33
2023-03-22T11:38:59.898Z,59.62
2023-03-22T11:39:59.882Z,59.36
2023-03-22T11:40:59.878Z,59.36
2023-03-22T11:41:59.897Z,57.92
2023-03-22T11:42:59.889Z,57.92
2023-03-22T11:43:59.858Z,58.78
2023-03-22T11:44:59.857Z,58.30
2023-03-22T11:45:59.878Z,56.37
2023-03-22T11:46:59.846Z,55.99
2023-03-22T11:47:59.896Z,57.02
2023-03-22T11:49:01.324Z,57.31
2023-03-22T11:49:59.826Z,56.37
2023-03-22T11:50:59.821Z,56.85
2023-03-22T11:51:59.813Z,57.05
2023-03-22T11:52:59.811Z,57.43
2023-03-22T11:53:59.799Z,55.79
2023-03-22T11:54:59.798Z,57.24
2023-03-22T11:55:59.793Z,57.14
2023-03-22T11:56:59.788Z,57.43
2023-03-22T11:57:59.776Z,57.14
2023-03-22T11:58:59.811Z,58.88
2023-03-22T11:59:59.768Z,60.52
2023-03-22T12:00:59.764Z,59.94
2023-03-22T12:01:59.755Z,59.45
2023-03-22T12:02:59.937Z,59.65
2023-03-22T12:03:59.797Z,58.97
2023-03-22T12:04:59.804Z,59.07
2023-03-22T12:05:59.785Z,58.01
2023-03-22T12:06:59.744Z,58.52
2023-03-22T12:07:59.720Z,58.42
2023-03-22T12:08:59.718Z,57.24
2023-03-22T12:10:00.237Z,56.76
2023-03-22T12:10:59.709Z,56.85
2023-03-22T12:11:59.704Z,56.95
2023-03-22T12:12:59.699Z,56.63
2023-03-22T12:13:59.693Z,57.98
2023-03-22T12:14:59.717Z,59.23
2023-03-22T12:15:59.729Z,57.50
2023-03-22T12:16:59.677Z,58.47
2023-03-22T12:17:59.718Z,59.81
2023-03-22T12:18:59.681Z,58.75
2023-03-22T12:19:59.668Z,58.95
2023-03-22T12:20:59.650Z,58.37
2023-03-22T12:21:59.659Z,60.49
2023-03-22T12:22:59.644Z,59.14
2023-03-22T12:23:59.637Z,58.27
2023-03-22T12:24:59.640Z,56.25
2023-03-22T12:25:59.634Z,57.60
2023-03-22T12:26:59.617Z,57.50
2023-03-22T12:27:59.628Z,57.43
2023-03-22T12:28:59.608Z,57.05
2023-03-22T12:30:59.690Z,57.14
2023-03-22T12:31:59.712Z,56.47
2023-03-22T12:32:59.693Z,54.93
2023-03-22T12:33:59.580Z,55.79
2023-03-22T12:35:16.078Z,57.24
2023-03-22T12:35:59.609Z,56.09
2023-03-22T12:36:59.569Z,54.44
2023-03-22T12:37:59.555Z,54.47
2023-03-22T12:38:59.562Z,54.86
2023-03-22T12:39:59.548Z,54.66
2023-03-22T12:40:59.553Z,54.57
2023-03-22T12:41:59.738Z,55.82
2023-03-22T12:43:00.370Z,53.80
2023-03-22T12:43:59.532Z,53.13
2023-03-22T12:45:05.178Z,53.22
2023-03-22T12:46:59.604Z,54.57
2023-03-22T12:47:59.625Z,54.66
2023-03-22T12:48:59.635Z,53.89
2023-03-22T12:49:59.710Z,52.55
2023-03-22T12:50:59.502Z,52.73
2023-03-22T12:51:59.494Z,53.03
2023-03-22T12:52:59.490Z,52.83
2023-03-22T12:53:59.479Z,53.05
2023-03-22T12:55:59.467Z,50.13